createdAt,value
2022-09-15T00:01:24.217Z,20.18
2022-09-15T00:03:52.927Z,20.12
2022-09-15T00:06:22.526Z,20.13
2022-09-15T00:08:50.828Z,20.08
2022-09-15T00:11:22.647Z,20.07
2022-09-15T00:13:54.205Z,20.10
2022-09-15T00:16:24.183Z,20.13
2022-09-15T00:18:52.710Z,20.11
2022-09-15T00:21:26.098Z,20.12
2022-09-15T00:23:54.491Z,20.14
2022-09-15T00:26:25.517Z,20.16
2022-09-15T00:28:54.395Z,20.17
2022-09-15T00:31:25.366Z,20.10
2022-09-15T00:33:59.933Z,20.11
2022-09-15T00:36:30.026Z,20.11
2022-09-15T00:38:59.517Z,20.12
2022-09-15T00:41:27.884Z,20.05
2022-09-15T00:43:57.775Z,20.06
2022-09-15T00:46:29.863Z,20.08
2022-09-15T00:49:11.450Z,20.10
2022-09-15T00:51:47.671Z,20.09
2022-09-15T00:54:19.038Z,20.06
2022-09-15T00:56:50.867Z,20.05
2022-09-15T00:59:22.586Z,20.10
2022-09-15T01:01:58.090Z,20.09
2022-09-15T01:04:26.674Z,20.09
2022-09-15T01:07:03.611Z,20.10
2022-09-15T01:09:36.863Z,20.07
2022-09-15T01:12:06.181Z,20.06
2022-09-15T01:14:34.378Z,20.06
2022-09-15T01:17:14.292Z,20.07
2022-09-15T01:20:16.127Z,20.06
2022-09-15T01:22:58.310Z,20.03
2022-09-15T01:25:45.996Z,20.04
2022-09-15T01:28:52.738Z,20.03
2022-09-15T01:31:26.312Z,20.01
2022-09-15T01:33:58.126Z,19.99
2022-09-15T01:36:32.229Z,19.98
2022-09-15T01:39:05.690Z,19.97
2022-09-15T01:41:39.580Z,19.90
2022-09-15T01:44:10.647Z,19.82
2022-09-15T01:46:47.101Z,19.77
2022-09-15T01:49:19.902Z,19.69
2022-09-15T01:51:52.147Z,19.64
2022-09-15T01:54:23.706Z,19.59
2022-09-15T01:56:51.782Z,19.56
2022-09-15T01:59:19.804Z,19.47
2022-09-15T02:01:57.454Z,19.41
2022-09-15T02:04:31.742Z,19.38
2022-09-15T02:07:06.399Z,19.47
2022-09-15T02:09:39.941Z,19.48
2022-09-15T02:12:14.605Z,19.55
2022-09-15T02:14:49.387Z,19.53
2022-09-15T02:17:21.966Z,19.53
2022-09-15T02:19:55.136Z,19.56
2022-09-15T02:22:27.999Z,19.57
2022-09-15T02:25:02.290Z,19.62
2022-09-15T02:27:34.023Z,19.64
2022-09-15T02:30:06.628Z,19.61
2022-09-15T02:32:41.078Z,19.60
2022-09-15T02:35:11.199Z,19.60
2022-09-15T02:37:40.164Z,19.57
2022-09-15T02:40:09.368Z,19.58
2022-09-15T02:42:39.245Z,19.55
2022-09-15T02:45:08.579Z,19.52
2022-09-15T02:47:38.073Z,19.53
2022-09-15T02:50:07.343Z,19.56
2022-09-15T02:52:35.423Z,19.58
2022-09-15T02:55:03.419Z,19.61
2022-09-15T02:57:31.384Z,19.62
2022-09-15T03:00:15.019Z,19.64
2022-09-15T03:02:46.166Z,19.72
2022-09-15T03:05:15.899Z,19.76
2022-09-15T03:07:44.113Z,19.81
2022-09-15T03:10:14.062Z,19.80
2022-09-15T03:12:44.356Z,19.84
2022-09-15T03:15:14.337Z,19.88
2022-09-15T03:17:46.509Z,19.89
2022-09-15T03:20:16.937Z,19.87
2022-09-15T03:22:45.186Z,19.93
2022-09-15T03:25:13.775Z,20.00
2022-09-15T03:27:42.464Z,20.00
2022-09-15T03:30:12.148Z,20.05
2022-09-15T03:32:40.170Z,20.06
2022-09-15T03:35:11.772Z,20.06
2022-09-15T03:37:39.988Z,20.11
2022-09-15T03:40:10.689Z,20.11
2022-09-15T03:42:38.858Z,20.16
2022-09-15T03:45:07.679Z,20.21
2022-09-15T03:47:35.724Z,20.17
2022-09-15T03:50:03.828Z,20.19
2022-09-15T03:52:33.944Z,20.19
2022-09-15T03:55:01.971Z,20.18
2022-09-15T03:57:29.956Z,20.20
2022-09-15T03:59:57.936Z,20.18
2022-09-15T04:02:26.033Z,20.21
2022-09-15T04:04:54.012Z,20.23
2022-09-15T04:07:21.933Z,20.22
2022-09-15T04:09:51.550Z,20.22
2022-09-15T04:12:19.522Z,20.23
2022-09-15T04:14:47.770Z,20.23
2022-09-15T04:17:16.206Z,20.15
2022-09-15T04:19:44.176Z,20.13
2022-09-15T04:22:16.983Z,20.15
2022-09-15T04:24:46.203Z,20.18
2022-09-15T04:27:15.754Z,20.13
2022-09-15T04:29:44.230Z,20.16
2022-09-15T04:32:12.331Z,20.12
2022-09-15T04:34:41.470Z,20.15
2022-09-15T04:37:09.702Z,20.15
2022-09-15T04:39:37.715Z,20.13
2022-09-15T04:42:07.994Z,20.11
2022-09-15T04:44:37.420Z,20.15
2022-09-15T04:47:05.976Z,20.12
2022-09-15T04:49:34.054Z,20.17
2022-09-15T04:52:03.338Z,20.18
2022-09-15T04:54:34.823Z,20.16
2022-09-15T04:57:03.208Z,20.14
2022-09-15T04:59:31.276Z,20.20
2022-09-15T05:02:01.567Z,20.20
2022-09-15T05:04:29.572Z,20.18
2022-09-15T05:06:57.982Z,20.16
2022-09-15T05:09:26.535Z,20.11
2022-09-15T05:11:54.494Z,20.10
2022-09-15T05:14:22.580Z,20.05
2022-09-15T05:16:50.715Z,20.09
2022-09-15T05:19:20.163Z,20.07
2022-09-15T05:21:48.218Z,20.04
2022-09-15T05:24:16.748Z,20.09
2022-09-15T05:26:44.728Z,20.11
2022-09-15T05:29:13.793Z,20.11
2022-09-15T05:31:41.833Z,20.08
2022-09-15T05:34:11.263Z,20.06
2022-09-15T05:36:40.641Z,20.06
2022-09-15T05:39:08.705Z,20.09
2022-09-15T05:41:36.900Z,20.06
2022-09-15T05:44:04.938Z,20.08
2022-09-15T05:46:32.959Z,20.06
2022-09-15T05:49:00.925Z,20.09
2022-09-15T05:51:30.227Z,20.08
2022-09-15T05:54:00.118Z,20.04
2022-09-15T05:56:28.183Z,20.04
2022-09-15T05:58:56.227Z,20.02
2022-09-15T06:01:26.202Z,20.02
2022-09-15T06:03:55.158Z,20.05
2022-09-15T06:06:24.001Z,20.03
2022-09-15T06:08:58.087Z,20.00
2022-09-15T06:11:29.614Z,19.96
2022-09-15T06:14:00.627Z,19.98
2022-09-15T06:16:29.194Z,20.00
2022-09-15T06:18:57.204Z,20.00
2022-09-15T06:21:27.690Z,20.06
2022-09-15T06:23:56.928Z,20.03
2022-09-15T06:26:25.849Z,20.03
2022-09-15T06:28:57.273Z,20.05
2022-09-15T06:31:26.653Z,20.06
2022-09-15T06:33:56.354Z,20.07
2022-09-15T06:36:26.156Z,20.12
2022-09-15T06:38:54.733Z,20.14
2022-09-15T06:41:23.260Z,20.19
2022-09-15T06:43:51.593Z,20.16
2022-09-15T06:46:23.080Z,20.17
2022-09-15T06:48:52.154Z,20.17
2022-09-15T06:51:22.676Z,20.11
2022-09-15T06:53:51.084Z,20.09
2022-09-15T06:56:21.654Z,20.06
2022-09-15T06:58:53.497Z,19.98
2022-09-15T07:01:25.319Z,19.93
2022-09-15T07:03:54.202Z,19.86
2022-09-15T07:06:23.049Z,19.84
2022-09-15T07:08:53.975Z,19.83
2022-09-15T07:11:22.024Z,19.81
2022-09-15T07:13:51.037Z,19.71
2022-09-15T07:16:21.180Z,19.67
2022-09-15T07:18:53.622Z,19.72
2022-09-15T07:21:22.836Z,19.69
2022-09-15T07:23:52.065Z,19.68
2022-09-15T07:26:22.436Z,19.68
2022-09-15T07:28:53.534Z,19.72
2022-09-15T07:31:23.824Z,19.66
2022-09-15T07:33:53.889Z,19.68
2022-09-15T07:36:22.944Z,19.71
2022-09-15T07:38:52.009Z,19.77
2022-09-15T07:41:22.440Z,19.79
2022-09-15T07:43:51.777Z,19.88
2022-09-15T07:46:21.361Z,19.90
2022-09-15T07:48:51.597Z,20.00
2022-09-15T07:51:23.802Z,20.11
2022-09-15T07:53:53.326Z,20.25
2022-09-15T07:56:30.780Z,20.31
2022-09-15T07:59:01.482Z,20.43
2022-09-15T08:01:30.184Z,20.51
2022-09-15T08:03:59.200Z,20.53
2022-09-15T08:06:45.358Z,20.61
2022-09-15T08:09:23.326Z,20.66
2022-09-15T08:11:52.569Z,20.65
2022-09-15T08:14:23.880Z,20.69
2022-09-15T08:16:52.327Z,20.75
2022-09-15T08:19:23.339Z,20.78
2022-09-15T08:21:57.618Z,20.81
2022-09-15T08:24:25.935Z,20.72
2022-09-15T08:26:54.679Z,20.75
2022-09-15T08:29:29.855Z,20.79
2022-09-15T08:31:58.230Z,20.78
2022-09-15T08:34:28.730Z,20.91
2022-09-15T08:36:58.687Z,20.97
2022-09-15T08:39:28.283Z,21.02
2022-09-15T08:41:58.224Z,21.07
2022-09-15T08:44:42.247Z,21.13
2022-09-15T08:47:16.500Z,21.12
2022-09-15T08:49:55.973Z,21.11
2022-09-15T08:52:31.669Z,21.06
2022-09-15T08:55:02.778Z,21.04
2022-09-15T08:57:33.001Z,21.01
2022-09-15T09:00:05.040Z,21.02
2022-09-15T09:03:07.357Z,21.07
2022-09-15T09:05:59.579Z,21.09
2022-09-15T09:08:50.407Z,21.09
2022-09-15T09:11:27.136Z,21.08
2022-09-15T09:14:07.617Z,20.96
2022-09-15T09:16:50.050Z,20.95
2022-09-15T09:19:43.745Z,20.89
2022-09-15T09:22:16.111Z,20.85
2022-09-15T09:24:52.311Z,20.91
2022-09-15T09:27:26.194Z,20.92
2022-09-15T09:30:02.361Z,20.98
2022-09-15T09:32:44.775Z,21.02
2022-09-15T09:35:26.934Z,21.00
2022-09-15T09:37:57.525Z,20.90
2022-09-15T09:40:28.341Z,20.87
2022-09-15T09:42:56.476Z,20.83
2022-09-15T09:45:24.710Z,20.76
2022-09-15T09:47:59.573Z,20.83
2022-09-15T09:50:36.639Z,20.82
2022-09-15T09:53:23.989Z,20.80
2022-09-15T09:56:24.513Z,20.85
2022-09-15T09:58:53.997Z,20.84
2022-09-15T10:01:25.121Z,20.92
2022-09-15T10:04:29.933Z,21.01
2022-09-15T10:06:58.326Z,21.20
2022-09-15T10:09:31.201Z,21.28
2022-09-15T10:12:05.089Z,21.35
2022-09-15T10:14:36.270Z,21.42
2022-09-15T10:17:10.039Z,21.50
2022-09-15T10:19:47.933Z,21.63
2022-09-15T10:22:42.912Z,21.72
2022-09-15T10:25:55.198Z,21.74
2022-09-15T10:28:28.855Z,21.70
2022-09-15T10:31:11.390Z,21.64
2022-09-15T10:33:45.054Z,21.71
2022-09-15T10:36:16.229Z,21.72
2022-09-15T10:47:28.206Z,21.61
2022-09-15T10:50:10.163Z,21.80
2022-09-15T10:52:54.150Z,21.97
2022-09-15T10:55:52.346Z,21.97
2022-09-15T11:02:06.236Z,21.71
2022-09-15T11:05:17.942Z,21.63
2022-09-15T11:08:03.555Z,21.55
2022-09-15T11:10:53.200Z,21.37
2022-09-15T11:13:31.028Z,21.36
2022-09-15T11:16:24.268Z,21.33
2022-09-15T11:19:08.101Z,21.32
2022-09-15T11:21:54.344Z,21.19
2022-09-15T11:27:43.031Z,21.08
2022-09-15T11:30:21.875Z,20.95
2022-09-15T11:32:59.473Z,20.92
2022-09-15T11:35:40.807Z,20.86
2022-09-15T11:38:51.164Z,20.72
2022-09-15T11:41:25.886Z,20.76
2022-09-15T11:44:06.262Z,20.83
2022-09-15T11:46:51.916Z,20.96
2022-09-15T11:49:23.990Z,21.15
2022-09-15T11:51:58.068Z,21.31
2022-09-15T11:54:37.068Z,21.44
2022-09-15T11:57:06.148Z,21.61
2022-09-15T11:59:43.418Z,21.73
2022-09-15T12:02:23.766Z,21.89
2022-09-15T12:05:05.071Z,21.98
2022-09-15T12:07:35.964Z,22.09
2022-09-15T12:10:16.407Z,22.25
2022-09-15T12:13:08.007Z,22.37
2022-09-15T12:15:36.826Z,22.48
2022-09-15T12:18:37.781Z,22.54
2022-09-15T12:21:17.912Z,22.45
2022-09-15T12:23:54.698Z,22.43
2022-09-15T12:26:29.291Z,22.36
2022-09-15T12:31:46.682Z,22.07
2022-09-15T12:35:01.368Z,21.87
2022-09-15T12:38:20.376Z,21.78
2022-09-15T12:41:05.300Z,21.71
2022-09-15T12:44:03.951Z,21.82
2022-09-15T12:52:59.913Z,21.96
2022-09-15T12:55:32.037Z,22.06
2022-09-15T12:58:16.756Z,22.25
2022-09-15T13:01:07.176Z,22.30
2022-09-15T13:04:30.253Z,22.38
2022-09-15T13:08:05.790Z,22.60
2022-09-15T13:14:27.562Z,22.57
2022-09-15T13:23:56.753Z,23.01
2022-09-15T13:26:58.976Z,23.31
2022-09-15T13:29:34.384Z,23.39
2022-09-15T13:32:12.204Z,23.37
2022-09-15T13:35:29.052Z,23.27
2022-09-15T13:38:54.737Z,23.00
2022-09-15T13:45:45.880Z,22.27
2022-09-15T13:48:34.942Z,22.12
2022-09-15T13:51:14.688Z,22.18
2022-09-15T13:53:50.311Z,22.26
2022-09-15T13:56:24.830Z,22.38
2022-09-15T13:58:56.383Z,22.54
2022-09-15T14:01:31.583Z,22.75
2022-09-15T14:04:03.122Z,22.92
2022-09-15T14:06:42.878Z,23.08
2022-09-15T14:09:17.458Z,23.27
2022-09-15T14:11:54.802Z,22.96
2022-09-15T14:14:41.479Z,23.54
2022-09-15T14:17:24.243Z,24.15
2022-09-15T14:19:56.569Z,24.76
2022-09-15T14:22:29.328Z,24.74
2022-09-15T14:24:58.941Z,24.52
2022-09-15T14:27:29.209Z,24.22
2022-09-15T14:30:54.968Z,23.84
2022-09-15T14:33:38.203Z,23.45
2022-09-15T14:36:15.195Z,23.30
2022-09-15T14:41:52.475Z,23.54
2022-09-15T14:51:03.224Z,23.94
2022-09-15T14:53:31.987Z,23.88
2022-09-15T14:56:08.231Z,23.77
2022-09-15T14:58:41.821Z,23.62
2022-09-15T15:01:16.844Z,23.54
2022-09-15T15:03:51.034Z,23.35
2022-09-15T15:06:30.783Z,23.13
2022-09-15T15:09:07.625Z,22.81
2022-09-15T15:11:45.303Z,22.50
2022-09-15T15:14:20.558Z,22.24
2022-09-15T15:16:56.580Z,22.09
2022-09-15T15:19:36.851Z,21.92
2022-09-15T15:22:20.342Z,21.73
2022-09-15T15:24:51.534Z,21.63
2022-09-15T15:27:27.724Z,21.56
2022-09-15T15:29:58.225Z,21.59
2022-09-15T15:32:27.146Z,21.59
2022-09-15T15:35:04.486Z,21.62
2022-09-15T15:43:27.798Z,21.94
2022-09-15T15:46:01.025Z,22.07
2022-09-15T15:48:36.908Z,22.18
2022-09-15T15:51:07.174Z,22.14
2022-09-15T15:53:37.481Z,22.11
2022-09-15T15:56:10.103Z,22.02
2022-09-15T15:58:38.688Z,21.89
2022-09-15T16:01:07.518Z,21.84
2022-09-15T16:03:35.837Z,21.78
2022-09-15T16:06:04.585Z,21.76
2022-09-15T16:08:35.321Z,21.67
2022-09-15T16:11:04.818Z,21.59
2022-09-15T16:13:34.519Z,21.47
2022-09-15T16:16:03.879Z,21.32
2022-09-15T16:18:32.373Z,21.31
2022-09-15T16:21:00.532Z,21.24
2022-09-15T16:23:28.599Z,21.26
2022-09-15T16:26:05.296Z,21.26
2022-09-15T16:28:35.008Z,21.30
2022-09-15T16:31:03.286Z,21.36
2022-09-15T16:33:35.933Z,21.46
2022-09-15T16:36:08.270Z,21.54
2022-09-15T16:38:37.746Z,21.60
2022-09-15T16:41:12.548Z,21.59
2022-09-15T16:44:05.277Z,21.53
2022-09-15T16:46:33.532Z,21.54
2022-09-15T16:49:03.363Z,21.50
2022-09-15T16:51:38.919Z,21.41
2022-09-15T16:54:16.121Z,21.39
2022-09-15T16:56:45.942Z,21.32
2022-09-15T16:59:43.522Z,21.28
2022-09-15T17:02:27.961Z,21.23
2022-09-15T17:04:56.625Z,21.23
2022-09-15T17:07:25.633Z,21.27
2022-09-15T17:09:56.753Z,21.22
2022-09-15T17:12:40.208Z,21.22
2022-09-15T17:15:31.551Z,21.15
2022-09-15T17:18:11.156Z,21.13
2022-09-15T17:20:44.558Z,21.07
2022-09-15T17:26:31.324Z,21.02
2022-09-15T17:29:04.220Z,21.04
2022-09-15T17:31:35.903Z,21.06
2022-09-15T17:34:04.920Z,21.27
2022-09-15T17:36:37.468Z,21.57
2022-09-15T17:39:06.151Z,21.81
2022-09-15T17:44:21.929Z,21.62
2022-09-15T17:46:55.478Z,21.51
2022-09-15T17:49:46.178Z,21.36
2022-09-15T17:52:17.731Z,21.24
2022-09-15T17:54:47.555Z,21.27
2022-09-15T17:57:15.642Z,21.22
2022-09-15T17:59:56.802Z,21.23
2022-09-15T18:02:40.018Z,21.40
2022-09-15T18:08:17.045Z,21.33
2022-09-15T18:13:45.662Z,21.09
2022-09-15T18:16:19.593Z,20.97
2022-09-15T18:18:53.405Z,20.87
2022-09-15T18:29:33.649Z,20.43
2022-09-15T18:32:09.371Z,20.30
2022-09-15T18:34:49.490Z,20.21
2022-09-15T18:37:19.751Z,20.15
2022-09-15T18:39:49.465Z,20.03
2022-09-15T18:42:17.997Z,19.93
2022-09-15T18:44:46.685Z,19.90
2022-09-15T18:47:14.949Z,19.84
2022-09-15T18:49:47.060Z,19.72
2022-09-15T18:52:16.255Z,19.69
2022-09-15T18:54:44.568Z,19.66
2022-09-15T18:57:14.181Z,19.61
2022-09-15T18:59:42.973Z,19.56
2022-09-15T19:02:14.550Z,19.51
2022-09-15T19:04:47.508Z,19.47
2022-09-15T19:07:18.480Z,19.42
2022-09-15T19:10:03.720Z,19.33
2022-09-15T19:12:38.489Z,19.28
2022-09-15T19:15:12.358Z,19.25
2022-09-15T19:17:59.396Z,19.19
2022-09-15T19:20:31.615Z,19.13
2022-09-15T19:23:15.576Z,19.13
2022-09-15T19:28:34.986Z,19.03
2022-09-15T19:31:07.341Z,19.02
2022-09-15T19:33:37.872Z,18.98
2022-09-15T19:36:27.549Z,18.93
2022-09-15T19:39:17.847Z,18.85
2022-09-15T19:41:46.474Z,18.89
2022-09-15T19:44:16.985Z,18.86
2022-09-15T19:46:48.306Z,18.88
2022-09-15T19:49:20.137Z,18.85
2022-09-15T19:52:06.677Z,18.84
2022-09-15T19:54:43.618Z,18.82
2022-09-15T19:57:22.213Z,18.82
2022-09-15T19:59:53.873Z,18.78
2022-09-15T20:02:22.644Z,18.78
2022-09-15T20:04:54.307Z,18.81
2022-09-15T20:07:26.013Z,18.79
2022-09-15T20:09:58.346Z,18.83
2022-09-15T20:12:37.376Z,18.88
2022-09-15T20:15:07.069Z,18.85
2022-09-15T20:17:35.377Z,18.89
2022-09-15T20:20:07.326Z,18.94
2022-09-15T20:22:35.905Z,18.95
2022-09-15T20:25:07.757Z,18.92
2022-09-15T20:27:41.269Z,18.99
2022-09-15T20:30:11.071Z,18.98
2022-09-15T20:32:39.270Z,18.99
2022-09-15T20:35:12.498Z,18.99
2022-09-15T20:37:41.025Z,19.03
2022-09-15T20:40:11.305Z,19.09
2022-09-15T20:42:39.490Z,19.14
2022-09-15T20:45:08.668Z,19.14
2022-09-15T20:47:36.942Z,19.19
2022-09-15T20:50:05.527Z,19.20
2022-09-15T20:52:38.207Z,19.22
2022-09-15T20:55:10.656Z,19.23
2022-09-15T20:57:40.399Z,19.25
2022-09-15T21:00:10.516Z,19.31
2022-09-15T21:02:39.224Z,19.35
2022-09-15T21:05:07.690Z,19.28
2022-09-15T21:07:35.730Z,19.27
2022-09-15T21:10:03.763Z,19.21
2022-09-15T21:12:31.959Z,19.16
2022-09-15T21:15:02.313Z,19.09
2022-09-15T21:17:30.507Z,19.03
2022-09-15T21:19:58.622Z,18.97
2022-09-15T21:22:26.691Z,18.92
2022-09-15T21:24:56.107Z,18.86
2022-09-15T21:27:30.730Z,18.78
2022-09-15T21:29:59.192Z,18.73
2022-09-15T21:32:29.967Z,18.68
2022-09-15T21:34:58.190Z,18.65
2022-09-15T21:37:28.054Z,18.63
2022-09-15T21:39:57.051Z,18.58
2022-09-15T21:42:25.694Z,18.53
2022-09-15T21:44:54.617Z,18.51
2022-09-15T21:47:22.842Z,18.50
2022-09-15T21:49:53.055Z,18.53
2022-09-15T21:52:21.779Z,18.53
2022-09-15T21:54:49.802Z,18.54
2022-09-15T21:57:18.134Z,18.58
2022-09-15T21:59:46.749Z,18.64
2022-09-15T22:02:17.531Z,18.66
2022-09-15T22:04:46.014Z,18.67
2022-09-15T22:07:19.776Z,18.70
2022-09-15T22:09:48.387Z,18.72
2022-09-15T22:12:16.468Z,18.72
2022-09-15T22:14:44.585Z,18.75
2022-09-15T22:17:12.684Z,18.76
2022-09-15T22:19:40.846Z,18.78
2022-09-15T22:22:09.241Z,18.80
2022-09-15T22:24:39.041Z,18.81
2022-09-15T22:27:07.226Z,18.83
2022-09-15T22:29:35.257Z,18.87
2022-09-15T22:32:03.813Z,18.86
2022-09-15T22:34:31.937Z,18.85
2022-09-15T22:37:00.130Z,18.84
2022-09-15T22:39:50.309Z,18.83
2022-09-15T22:42:18.838Z,18.80
2022-09-15T22:44:47.170Z,18.81
2022-09-15T22:47:15.490Z,18.83
2022-09-15T22:49:43.843Z,18.85
2022-09-15T22:52:13.311Z,18.84
2022-09-15T22:54:41.345Z,18.86
2022-09-15T22:57:09.486Z,18.88
2022-09-15T22:59:38.980Z,18.83
2022-09-15T23:02:07.234Z,18.84
2022-09-15T23:04:35.336Z,18.84
2022-09-15T23:07:03.511Z,18.83
2022-09-15T23:09:31.864Z,18.76
2022-09-15T23:12:00.105Z,18.78
2022-09-15T23:14:28.473Z,18.77
2022-09-15T23:16:58.239Z,18.76
2022-09-15T23:19:26.356Z,18.74
2022-09-15T23:21:54.428Z,18.72
2022-09-15T23:24:22.553Z,18.69
2022-09-15T23:26:50.539Z,18.69
2022-09-15T23:29:18.798Z,18.68
2022-09-15T23:31:47.014Z,18.67
2022-09-15T23:34:16.588Z,18.72
2022-09-15T23:36:44.798Z,18.70
2022-09-15T23:39:12.833Z,18.74
2022-09-15T23:41:41.405Z,18.77
2022-09-15T23:44:09.515Z,18.77
2022-09-15T23:46:37.704Z,18.86
2022-09-15T23:49:05.835Z,18.87
2022-09-15T23:51:35.933Z,18.92
2022-09-15T23:54:04.764Z,18.95
2022-09-15T23:56:33.977Z,18.97
2022-09-15T23:59:01.945Z,18.99
